createdAt,value
2023-04-15T00:01:23.625Z,100.00
2023-04-15T00:06:27.084Z,100.00
2023-04-15T00:11:31.011Z,100.00
2023-04-15T00:16:33.290Z,100.00
2023-04-15T00:21:36.870Z,100.00
2023-04-15T00:26:39.304Z,100.00
2023-04-15T00:31:41.379Z,100.00
2023-04-15T00:36:44.835Z,100.00
2023-04-15T00:41:46.740Z,100.00
2023-04-15T00:46:50.908Z,100.00
2023-04-15T00:51:57.333Z,100.00
2023-04-15T00:56:59.720Z,100.00
2023-04-15T01:02:01.931Z,100.00
2023-04-15T01:07:05.306Z,100.00
2023-04-15T01:12:08.080Z,100.00
2023-04-15T01:17:10.584Z,100.00
2023-04-15T01:22:14.530Z,100.00
2023-04-15T01:27:18.073Z,100.00
2023-04-15T01:32:20.329Z,100.00
2023-04-15T01:37:22.139Z,100.00
2023-04-15T01:42:26.449Z,100.00
2023-04-15T01:47:28.547Z,100.00
2023-04-15T01:52:30.555Z,100.00
2023-04-15T01:57:34.093Z,100.00
2023-04-15T02:02:36.266Z,100.00
2023-04-15T02:07:38.398Z,100.00
2023-04-15T02:12:41.877Z,100.00
2023-04-15T02:17:44.112Z,100.00
2023-04-15T02:22:45.825Z,100.00
2023-04-15T02:27:49.022Z,100.00
2023-04-15T02:32:51.045Z,100.00
2023-04-15T02:37:53.136Z,100.00
2023-04-15T02:42:56.619Z,100.00
2023-04-15T02:47:58.829Z,100.00
2023-04-15T02:53:00.852Z,100.00
2023-04-15T02:58:04.677Z,100.00
2023-04-15T03:03:07.088Z,100.00
2023-04-15T03:08:09.352Z,100.00
2023-04-15T03:13:12.602Z,100.00
2023-04-15T03:18:14.805Z,100.00
2023-04-15T03:23:16.850Z,100.00
2023-04-15T03:28:20.399Z,100.00
2023-04-15T03:33:22.512Z,100.00
2023-04-15T03:38:24.255Z,100.00
2023-04-15T03:43:27.705Z,100.00
2023-04-15T03:48:29.752Z,100.00
2023-04-15T03:53:31.854Z,100.00
2023-04-15T03:58:35.240Z,100.00
2023-04-15T04:03:37.528Z,100.00
2023-04-15T04:08:39.333Z,100.00
2023-04-15T04:13:42.422Z,100.00
2023-04-15T04:18:44.341Z,100.00
2023-04-15T04:23:46.191Z,100.00
2023-04-15T04:28:49.764Z,100.00
2023-04-15T04:33:51.826Z,100.00
2023-04-15T04:38:54.479Z,100.00
2023-04-15T04:43:57.990Z,100.00
2023-04-15T04:49:00.188Z,100.00
2023-04-15T04:54:03.698Z,100.00
2023-04-15T04:59:07.336Z,100.00
2023-04-15T05:04:09.606Z,100.00
2023-04-15T05:09:11.478Z,100.00
2023-04-15T05:14:14.986Z,100.00
2023-04-15T05:19:17.285Z,100.00
2023-04-15T05:24:19.707Z,100.00
2023-04-15T05:29:23.115Z,100.00
2023-04-15T05:34:25.304Z,100.00
2023-04-15T05:39:27.444Z,100.00
2023-04-15T05:44:30.917Z,100.00
2023-04-15T05:49:32.654Z,100.00
2023-04-15T05:54:34.631Z,100.00
2023-04-15T05:59:37.689Z,100.00
2023-04-15T06:04:39.458Z,100.00
2023-04-15T06:09:42.250Z,100.00
2023-04-15T06:14:45.865Z,100.00
2023-04-15T06:19:47.813Z,100.00
2023-04-15T06:24:50.838Z,100.00
2023-04-15T06:29:54.466Z,100.00
2023-04-15T06:34:56.622Z,100.00
2023-04-15T06:39:58.764Z,100.00
2023-04-15T06:45:05.996Z,98.89
2023-04-15T06:50:09.124Z,97.96
2023-04-15T06:55:12.405Z,95.93
2023-04-15T07:00:16.353Z,96.83
2023-04-15T07:05:18.713Z,95.45
2023-04-15T07:10:21.061Z,94.73
2023-04-15T07:15:24.605Z,92.14
2023-04-15T07:20:26.608Z,91.45
2023-04-15T07:25:28.427Z,90.66
2023-04-15T07:30:31.867Z,91.70
2023-04-15T07:35:33.654Z,92.66
2023-04-15T07:40:35.706Z,93.20
2023-04-15T07:45:39.305Z,91.37
2023-04-15T07:50:41.427Z,92.38
2023-04-15T07:55:43.573Z,92.80
2023-04-15T08:00:47.187Z,93.24
2023-04-15T08:05:48.899Z,93.16
2023-04-15T08:10:52.597Z,92.94
2023-04-15T08:16:16.500Z,92.87
2023-04-15T08:21:20.054Z,92.47
2023-04-15T08:26:21.895Z,93.15
2023-04-15T08:31:27.286Z,93.83
2023-04-15T08:36:29.353Z,93.10
2023-04-15T08:41:39.328Z,96.54
2023-04-15T08:46:42.630Z,95.95
2023-04-15T08:51:45.428Z,96.94
2023-04-15T08:56:48.443Z,98.44
2023-04-15T09:01:52.103Z,97.02
2023-04-15T09:06:54.357Z,96.34
2023-04-15T09:11:57.066Z,96.69
2023-04-15T09:17:02.036Z,96.08
2023-04-15T09:22:04.685Z,95.96
2023-04-15T09:27:07.819Z,95.47
2023-04-15T09:32:13.317Z,94.78
2023-04-15T09:37:31.354Z,94.70
2023-04-15T09:42:34.825Z,94.86
2023-04-15T09:47:39.162Z,95.81
2023-04-15T09:52:42.954Z,95.12
2023-04-15T09:57:46.286Z,96.14
2023-04-15T10:02:49.987Z,96.40
2023-04-15T10:07:51.913Z,97.27
2023-04-15T10:12:55.561Z,98.39
2023-04-15T10:18:01.749Z,99.12
2023-04-15T10:23:04.899Z,100.00
2023-04-15T10:28:11.182Z,100.00
2023-04-15T10:33:16.094Z,100.00
2023-04-15T10:38:36.732Z,100.00
2023-04-15T10:43:39.254Z,100.00
2023-04-15T10:48:49.419Z,100.00
2023-04-15T10:53:51.265Z,100.00
2023-04-15T10:58:53.218Z,100.00
2023-04-15T11:03:56.480Z,100.00
2023-04-15T11:09:00.369Z,100.00
2023-04-15T11:14:05.119Z,100.00
2023-04-15T11:19:11.081Z,100.00
2023-04-15T11:24:24.562Z,100.00
2023-04-15T11:29:29.602Z,100.00
2023-04-15T11:34:34.559Z,100.00
2023-04-15T11:39:38.070Z,100.00
2023-04-15T11:44:39.755Z,100.00
2023-04-15T11:49:43.326Z,100.00
2023-04-15T11:54:45.093Z,100.00
2023-04-15T11:59:46.816Z,100.00
2023-04-15T12:04:50.011Z,100.00
2023-04-15T12:09:55.422Z,100.00
2023-04-15T12:14:57.522Z,100.00
2023-04-15T12:20:00.689Z,100.00
2023-04-15T12:25:06.323Z,100.00
2023-04-15T12:30:08.821Z,100.00
2023-04-15T12:35:12.697Z,100.00
2023-04-15T12:40:14.849Z,100.00
2023-04-15T12:45:16.921Z,100.00
2023-04-15T12:50:20.351Z,100.00
2023-04-15T12:55:22.461Z,100.00
2023-04-15T13:00:24.540Z,100.00
2023-04-15T13:05:27.644Z,100.00
2023-04-15T13:10:29.998Z,100.00
2023-04-15T13:15:32.424Z,100.00
2023-04-15T13:20:36.636Z,100.00
2023-04-15T13:25:39.498Z,100.00
2023-04-15T13:30:41.729Z,100.00
2023-04-15T13:35:45.425Z,100.00
2023-04-15T13:40:47.844Z,100.00
2023-04-15T13:45:50.268Z,100.00
2023-04-15T13:50:53.700Z,100.00
2023-04-15T13:55:56.519Z,100.00
2023-04-15T14:00:58.738Z,100.00
2023-04-15T14:06:02.090Z,100.00
2023-04-15T14:11:03.921Z,100.00
2023-04-15T14:16:06.106Z,100.00
2023-04-15T14:21:09.196Z,100.00
2023-04-15T14:26:11.273Z,100.00
2023-04-15T14:31:13.040Z,100.00
2023-04-15T14:36:16.850Z,100.00
2023-04-15T14:41:19.030Z,100.00
2023-04-15T14:46:21.462Z,100.00
2023-04-15T14:51:24.908Z,100.00
2023-04-15T14:56:27.096Z,100.00
2023-04-15T15:01:29.148Z,100.00
2023-04-15T15:06:32.880Z,100.00
2023-04-15T15:11:34.688Z,100.00
2023-04-15T15:16:37.618Z,100.00
2023-04-15T15:21:40.751Z,100.00
2023-04-15T15:26:42.733Z,100.00
2023-04-15T15:31:44.867Z,100.00
2023-04-15T15:36:48.552Z,100.00
2023-04-15T15:41:50.357Z,100.00
2023-04-15T15:46:52.182Z,100.00
2023-04-15T15:51:56.060Z,100.00
2023-04-15T15:56:57.796Z,100.00
2023-04-15T16:01:59.749Z,100.00
2023-04-15T16:07:02.924Z,100.00
2023-04-15T16:12:05.027Z,100.00
2023-04-15T16:17:06.717Z,100.00
2023-04-15T16:22:09.882Z,100.00
2023-04-15T16:27:12.545Z,100.00
2023-04-15T16:32:14.639Z,100.00
2023-04-15T16:37:18.104Z,100.00
2023-04-15T16:42:19.868Z,100.00
2023-04-15T16:47:21.767Z,100.00
2023-04-15T16:52:24.863Z,100.00
2023-04-15T16:57:27.191Z,100.00
2023-04-15T17:02:49.355Z,100.00
2023-04-15T17:07:58.427Z,100.00
2023-04-15T17:13:00.182Z,100.00
2023-04-15T17:18:02.184Z,100.00
2023-04-15T17:23:05.989Z,100.00
2023-04-15T17:28:08.417Z,100.00
2023-04-15T17:33:55.952Z,100.00
2023-04-15T17:38:33.729Z,100.00
2023-04-15T17:43:35.483Z,100.00
2023-04-15T17:48:37.664Z,100.00
2023-04-15T17:53:41.196Z,100.00
2023-04-15T17:58:43.226Z,100.00
2023-04-15T18:03:45.913Z,100.00
2023-04-15T18:08:49.039Z,100.00
2023-04-15T18:13:50.914Z,100.00
2023-04-15T18:18:54.131Z,100.00
2023-04-15T18:23:57.210Z,100.00
2023-04-15T18:28:59.199Z,100.00
2023-04-15T18:34:01.389Z,100.00
2023-04-15T18:39:05.279Z,100.00
2023-04-15T18:44:07.744Z,100.00
2023-04-15T18:49:11.585Z,100.00
2023-04-15T18:54:15.916Z,100.00
2023-04-15T18:59:29.801Z,100.00
2023-04-15T19:04:38.743Z,100.00
2023-04-15T19:09:41.992Z,100.00
2023-04-15T19:14:43.760Z,100.00
2023-04-15T19:19:45.845Z,100.00
2023-04-15T19:24:49.542Z,100.00
2023-04-15T19:29:51.986Z,100.00
2023-04-15T19:34:54.068Z,100.00
2023-04-15T19:39:57.160Z,100.00
2023-04-15T19:45:01.590Z,100.00
2023-04-15T19:50:04.338Z,100.00
2023-04-15T19:55:08.719Z,100.00
2023-04-15T20:00:11.551Z,100.00
2023-04-15T20:05:13.419Z,100.00
2023-04-15T20:10:16.551Z,100.00
2023-04-15T20:15:18.363Z,100.00
2023-04-15T20:20:21.125Z,100.00
2023-04-15T20:25:25.272Z,100.00
2023-04-15T20:30:27.425Z,100.00
2023-04-15T20:35:29.351Z,100.00
2023-04-15T20:40:32.477Z,100.00
2023-04-15T20:45:34.396Z,100.00
2023-04-15T20:50:36.546Z,100.00
2023-04-15T20:55:39.598Z,100.00
2023-04-15T21:00:41.977Z,100.00
2023-04-15T21:05:43.841Z,100.00
2023-04-15T21:10:47.128Z,100.00
2023-04-15T21:15:49.224Z,100.00
2023-04-15T21:20:56.801Z,100.00
2023-04-15T21:26:00.246Z,100.00
2023-04-15T21:31:02.902Z,100.00
2023-04-15T21:36:05.540Z,100.00
2023-04-15T21:41:08.843Z,100.00
2023-04-15T21:46:23.469Z,100.00
2023-04-15T21:51:27.408Z,100.00
2023-04-15T21:56:30.722Z,100.00
2023-04-15T22:01:32.850Z,100.00
2023-04-15T22:06:35.355Z,100.00
2023-04-15T22:11:38.769Z,100.00
2023-04-15T22:16:40.498Z,100.00
2023-04-15T22:21:42.812Z,100.00
2023-04-15T22:26:46.255Z,100.00
2023-04-15T22:31:48.658Z,100.00
2023-04-15T22:36:51.965Z,100.00
2023-04-15T22:41:55.462Z,100.00
2023-04-15T22:46:57.191Z,100.00
2023-04-15T22:51:58.938Z,100.00
2023-04-15T22:57:02.571Z,100.00
2023-04-15T23:02:04.753Z,100.00
2023-04-15T23:07:06.543Z,100.00
2023-04-15T23:12:10.169Z,100.00
2023-04-15T23:17:12.181Z,100.00
2023-04-15T23:22:14.225Z,100.00
2023-04-15T23:27:17.719Z,100.00
2023-04-15T23:32:20.093Z,100.00
2023-04-15T23:37:22.066Z,100.00
2023-04-15T23:42:25.582Z,100.00
2023-04-15T23:47:27.562Z,100.00
2023-04-15T23:52:29.741Z,100.00
2023-04-15T23:57:33.229Z,100.00
